ノリにノリまくっているお二人とーー!!!

LUXURY FLIGHT

03-6423-7371

羽田本店:東京都大田区羽田5-11-1
営業時間:10:00~20:00
定休日:毎週 月曜日
セントレア店:愛知県常滑市セントレア1-1
営業時間:10:00~20:00 年中無休

lv

ノリにノリまくっているお二人とーー!!!

STAFF BLOG

2020/01/10 ノリにノリまくっているお二人とーー!!!

中部よりこんばんはーーーーー!!!
RJGG 100630Z 30016KT 9999 FEW030 12/03 Q1016 NOSIG
先日、岐阜市と名古屋市から、遊びに来てくださったIさま!
ノリノリ爽やか笑顔の美男美女ペアです!
お兄さんは、お仕事のご都合で、787によくご搭乗されていて、
今回が初めての操縦体験だとか!!
予習はバッチリ~~~~~!!!
その爽やか笑顔+ノリノリテンションで、一体どんなお仕事をされているのか、
大変気になりますが、、、ヒ・ミ・ツ!だそうです。笑
それでは早速テイクオーーーフ!
マニュアル操縦が始まり、
難しい〜と爽やかに苦笑いしながらも、
すぐにノリノリで上昇降下、左右にターン♪
787もいつもに増して、調子良さげににエンジンふかして飛んでいるような〜いないような〜笑笑
アプローチの電波にもスパッとノリにノッて、スタビライズ!!!
最後も安定して降りるかと思いきや、フレアはギュイーーーン!!と。(笑)
なかなか思い通りにいかない奥深さがあるから、楽しいんですよねっ!!
体験終了後には、キッチリと決めポーズをしてくださいました。
img_e2194
また絶対来まーーーすと、
去りゆく後ろ姿も爽やかでカッコいいお二人!!
気がつけば、私もノリノリを伝染させてもらったような!!
人生初の操縦体験を弊社シミュレータをご利用くださり、ありがとうございました!
またのご来店をお待ちいたしております!!
弊社は、お客様おひとりおひとりのご希望、ご興味や知識・技倆レベルに合った、
皆さまにご満足頂けるようなサービスのご提供を目指しております!
初めての方には、わかりやすく丁寧に!
2回目以降の方には、さらなる深みにハマって頂けるように対応させて頂きますっ!!
羽田本店の737・バロン、セントレア店の787・747ドリームリフター、
それぞれの違いもお楽しみ頂ければと思います。
いつもブログをお読みくださり、本当にありがとうございます。
「感謝」

TOP